KWRB/WRB METAR and TAF weather

Enter ICAO airport designator
Station Type Date Time Source
KWRB METAR 2021/09/23 16:55 UTC NOAA

KWRB 231655Z 34009KT 10SM CLR 22/13 A3000 RMK AO2A SLP160


Station Type Date Time Source
KWRB Decoded METAR 2021/09/23 16:55 UTC NOAA

Warner Robins Air Force Base, GA, United States (KWRB) 32-38N 083-36W
Sep 23, 2021 - 12:55 PM EDT / 2021.09.23 1655 UTC
Wind: from the NNW (340 degrees) at 10 MPH (9 KT):0
Visibility: 10 mile(s):0
Sky conditions: clear
Temperature: 71 F (22 C)
Dew Point: 55 F (13 C)
Relative Humidity: 56%
Pressure (altimeter): 30 in. Hg (1015 hPa)
ob: KWRB 231655Z 34009KT 10SM CLR 22/13 A3000 RMK AO2A SLP160
cycle: 17

Station Type Date Time Source
KWRB TAF 2021/09/23 16:57 UTC NOAA

TAF KWRB 231600Z 2316/2422 35010G15KT 9999 SKC QNH3000INS
BECMG 2319/2320 34010KT 9999 SKC QNH2997INS TX25/2318Z TN13/2411Z

Example: see airport list